createdAt,value
2018-12-04T00:01:26.912Z,13.20
2018-12-04T00:03:58.675Z,13.20
2018-12-04T00:06:31.303Z,13.20
2018-12-04T00:09:04.402Z,13.30
2018-12-04T00:11:35.921Z,13.30
2018-12-04T00:14:08.650Z,13.20
2018-12-04T00:16:40.344Z,13.20
2018-12-04T00:19:13.061Z,13.20
2018-12-04T00:21:45.361Z,13.20
2018-12-04T00:24:17.491Z,13.20
2018-12-04T00:26:49.813Z,13.20
2018-12-04T00:29:23.331Z,13.20
2018-12-04T00:31:56.092Z,13.20
2018-12-04T00:34:28.310Z,13.20
2018-12-04T00:37:00.310Z,13.10
2018-12-04T00:39:32.772Z,13.10
2018-12-04T00:42:05.162Z,13.10
2018-12-04T00:44:38.040Z,13.10
2018-12-04T00:47:09.990Z,13.10
2018-12-04T00:49:42.061Z,13.10
2018-12-04T00:52:15.010Z,13.10
2018-12-04T00:54:48.131Z,13.10
2018-12-04T00:57:21.691Z,13.20
2018-12-04T00:59:54.671Z,13.20
2018-12-04T01:02:26.440Z,13.10
2018-12-04T01:04:59.339Z,13.10
2018-12-04T01:07:32.141Z,13.10
2018-12-04T01:10:03.992Z,13.10
2018-12-04T01:12:36.301Z,13.10
2018-12-04T01:15:09.843Z,13.10
2018-12-04T01:17:41.820Z,13.20
2018-12-04T01:20:14.453Z,13.20
2018-12-04T01:22:47.071Z,13.20
2018-12-04T01:25:19.881Z,13.20
2018-12-04T01:27:52.511Z,13.20
2018-12-04T01:30:25.951Z,13.30
2018-12-04T01:32:58.453Z,13.30
2018-12-04T01:35:31.274Z,13.20
2018-12-04T01:38:03.540Z,13.20
2018-12-04T01:40:36.631Z,13.20
2018-12-04T01:43:10.200Z,13.20
2018-12-04T01:45:41.939Z,13.20
2018-12-04T01:48:15.610Z,13.20
2018-12-04T01:50:48.150Z,13.20
2018-12-04T01:53:20.301Z,13.20
2018-12-04T01:55:52.151Z,13.10
2018-12-04T01:58:24.451Z,13.10
2018-12-04T02:00:56.704Z,13.10
2018-12-04T02:03:29.652Z,13.10
2018-12-04T02:06:01.971Z,13.10
2018-12-04T02:08:34.011Z,13.10
2018-12-04T02:11:06.681Z,13.10
2018-12-04T02:13:39.140Z,13.10
2018-12-04T02:16:11.400Z,13.00
2018-12-04T02:18:43.920Z,12.90
2018-12-04T02:21:16.631Z,12.90
2018-12-04T02:23:48.529Z,12.80
2018-12-04T02:26:20.900Z,12.80
2018-12-04T02:28:53.870Z,12.80
2018-12-04T02:31:25.840Z,12.80
2018-12-04T02:33:58.452Z,12.80
2018-12-04T02:36:30.241Z,12.80
2018-12-04T02:39:03.241Z,12.70
2018-12-04T02:41:36.251Z,12.70
2018-12-04T02:44:08.361Z,12.60
2018-12-04T02:46:40.801Z,12.60
2018-12-04T02:49:12.959Z,12.50
2018-12-04T02:51:45.070Z,12.40
2018-12-04T02:54:17.720Z,12.40
2018-12-04T02:56:50.394Z,12.40
2018-12-04T02:59:22.820Z,12.30
2018-12-04T03:01:55.231Z,12.20
2018-12-04T03:04:26.587Z,12.30
2018-12-04T03:06:58.909Z,12.20
2018-12-04T03:09:31.480Z,12.20
2018-12-04T03:12:03.650Z,12.30
2018-12-04T03:14:36.290Z,12.30
2018-12-04T03:17:08.191Z,12.20
2018-12-04T03:19:40.600Z,12.20
2018-12-04T03:22:12.591Z,12.20
2018-12-04T03:24:45.070Z,12.30
2018-12-04T03:27:16.828Z,12.20
2018-12-04T03:29:49.152Z,12.20
2018-12-04T03:32:22.086Z,12.20
2018-12-04T03:34:55.442Z,12.20
2018-12-04T03:37:28.200Z,12.20
2018-12-04T03:40:01.131Z,12.10
2018-12-04T03:42:33.191Z,12.10
2018-12-04T03:45:06.244Z,12.10
2018-12-04T03:47:38.922Z,12.10
2018-12-04T03:50:10.841Z,12.10
2018-12-04T03:52:43.771Z,12.10
2018-12-04T03:55:16.513Z,12.10
2018-12-04T03:57:48.142Z,12.10
2018-12-04T04:00:21.101Z,12.00
2018-12-04T04:02:53.314Z,12.00
2018-12-04T04:05:24.952Z,12.10
2018-12-04T04:07:58.111Z,12.10
2018-12-04T04:10:30.785Z,12.10
2018-12-04T04:13:02.923Z,12.10
2018-12-04T04:15:36.083Z,12.10
2018-12-04T04:18:08.392Z,12.10
2018-12-04T04:20:41.901Z,12.10
2018-12-04T04:23:13.673Z,12.10
2018-12-04T04:25:46.361Z,12.10
2018-12-04T04:28:19.192Z,12.10
2018-12-04T04:30:52.667Z,12.10
2018-12-04T04:33:24.820Z,12.10
2018-12-04T04:35:59.411Z,12.10
2018-12-04T04:38:31.663Z,12.10
2018-12-04T04:41:04.527Z,12.10
2018-12-04T04:43:36.832Z,12.10
2018-12-04T04:46:09.106Z,12.10
2018-12-04T04:48:41.217Z,12.10
2018-12-04T04:51:14.511Z,12.20
2018-12-04T04:53:46.322Z,12.20
2018-12-04T04:56:18.246Z,12.20
2018-12-04T04:58:51.073Z,12.20
2018-12-04T05:01:23.272Z,12.20
2018-12-04T05:03:56.143Z,12.20
2018-12-04T05:06:29.032Z,12.20
2018-12-04T05:09:01.192Z,12.20
2018-12-04T05:11:33.884Z,12.20
2018-12-04T05:14:06.493Z,12.20
2018-12-04T05:16:37.823Z,12.10
2018-12-04T05:19:10.412Z,12.10
2018-12-04T05:21:42.602Z,12.10
2018-12-04T05:24:14.462Z,12.00
2018-12-04T05:26:47.333Z,12.00
2018-12-04T05:29:20.763Z,12.00
2018-12-04T05:31:52.753Z,12.00
2018-12-04T05:34:26.473Z,12.00
2018-12-04T05:36:58.793Z,12.00
2018-12-04T05:39:32.263Z,12.00
2018-12-04T05:42:04.382Z,12.00
2018-12-04T05:44:37.001Z,12.00
2018-12-04T05:47:10.196Z,11.90
2018-12-04T05:49:43.272Z,11.90
2018-12-04T05:52:15.717Z,11.80
2018-12-04T05:54:48.764Z,11.80
2018-12-04T05:57:21.352Z,11.80
2018-12-04T05:59:54.582Z,11.80
2018-12-04T06:02:28.283Z,11.80
2018-12-04T06:05:00.491Z,11.80
2018-12-04T06:07:33.074Z,11.80
2018-12-04T06:10:05.284Z,11.80
2018-12-04T06:12:37.221Z,11.80
2018-12-04T06:15:53.600Z,11.80
2018-12-04T06:18:24.892Z,12.00
2018-12-04T06:20:58.041Z,11.90
2018-12-04T06:23:30.291Z,11.90
2018-12-04T06:26:02.601Z,11.90
2018-12-04T06:28:34.251Z,12.00
2018-12-04T06:31:07.201Z,12.00
2018-12-04T06:33:38.701Z,12.00
2018-12-04T06:36:11.422Z,11.90
2018-12-04T06:38:43.091Z,11.90
2018-12-04T06:41:15.595Z,11.90
2018-12-04T06:43:47.671Z,11.90
2018-12-04T06:46:20.221Z,11.90
2018-12-04T06:48:52.770Z,11.90
2018-12-04T06:51:25.621Z,12.00
2018-12-04T06:53:58.462Z,12.20
2018-12-04T06:56:32.101Z,12.10
2018-12-04T06:59:04.361Z,12.00
2018-12-04T07:01:36.281Z,12.00
2018-12-04T07:04:09.412Z,12.00
2018-12-04T07:06:42.051Z,11.90
2018-12-04T07:09:14.721Z,11.80
2018-12-04T07:11:47.002Z,11.80
2018-12-04T07:14:20.132Z,11.70
2018-12-04T07:16:51.932Z,11.70
2018-12-04T07:19:24.253Z,11.60
2018-12-04T07:21:56.660Z,11.60
2018-12-04T07:24:29.002Z,11.70
2018-12-04T07:27:02.051Z,11.70
2018-12-04T07:29:34.802Z,11.70
2018-12-04T07:32:07.142Z,11.70
2018-12-04T07:34:38.523Z,11.70
2018-12-04T07:37:11.291Z,11.80
2018-12-04T07:39:44.090Z,11.70
2018-12-04T07:42:17.191Z,11.80
2018-12-04T07:44:50.141Z,11.80
2018-12-04T07:47:22.912Z,11.70
2018-12-04T07:49:55.341Z,11.70
2018-12-04T07:52:29.891Z,11.70
2018-12-04T07:55:02.581Z,11.60
2018-12-04T07:57:34.741Z,11.60
2018-12-04T08:00:08.371Z,11.60
2018-12-04T08:02:40.613Z,11.70
2018-12-04T08:05:14.692Z,11.70
2018-12-04T08:07:47.573Z,11.70
2018-12-04T08:10:19.952Z,11.60
2018-12-04T08:12:52.561Z,11.70
2018-12-04T08:15:25.860Z,11.70
2018-12-04T08:17:57.581Z,11.80
2018-12-04T08:20:30.650Z,11.90
2018-12-04T08:23:02.781Z,11.90
2018-12-04T08:25:35.131Z,11.90
2018-12-04T08:28:07.761Z,11.90
2018-12-04T08:30:40.031Z,11.90
2018-12-04T08:33:12.100Z,12.00
2018-12-04T08:35:44.991Z,12.00
2018-12-04T08:38:17.650Z,12.00
2018-12-04T08:40:51.850Z,12.00
2018-12-04T08:43:24.431Z,12.10
2018-12-04T08:45:57.033Z,12.10
2018-12-04T08:48:29.201Z,12.20
2018-12-04T08:51:01.630Z,12.10
2018-12-04T08:53:34.130Z,12.10
2018-12-04T08:56:06.731Z,12.10
2018-12-04T08:58:38.721Z,12.10
2018-12-04T09:01:12.024Z,12.10
2018-12-04T09:03:44.940Z,12.20
2018-12-04T09:06:19.201Z,12.20
2018-12-04T09:08:51.944Z,12.20
2018-12-04T09:11:25.590Z,12.20
2018-12-04T09:13:57.361Z,12.30
2018-12-04T09:16:30.630Z,12.30
2018-12-04T09:19:03.731Z,12.40
2018-12-04T09:21:37.214Z,12.40
2018-12-04T09:24:09.605Z,12.40
2018-12-04T09:26:42.643Z,12.50
2018-12-04T09:29:14.651Z,12.50
2018-12-04T09:31:48.251Z,12.50
2018-12-04T09:34:20.511Z,12.50
2018-12-04T09:36:53.480Z,12.60
2018-12-04T09:39:26.251Z,12.70
2018-12-04T09:41:58.900Z,12.70
2018-12-04T09:44:31.541Z,12.70
2018-12-04T09:47:04.491Z,12.70
2018-12-04T09:49:36.782Z,12.60
2018-12-04T09:52:09.252Z,12.70
2018-12-04T09:54:41.221Z,12.80
2018-12-04T09:57:14.200Z,12.70
2018-12-04T09:59:46.612Z,12.70
2018-12-04T10:02:19.788Z,12.80
2018-12-04T10:04:51.910Z,12.80
2018-12-04T10:07:25.302Z,12.80
2018-12-04T10:10:00.574Z,12.80
2018-12-04T10:12:31.910Z,12.80
2018-12-04T10:15:04.170Z,12.70
2018-12-04T10:17:37.350Z,12.70
2018-12-04T10:20:10.459Z,12.70
2018-12-04T10:22:43.909Z,12.80
2018-12-04T10:25:16.419Z,12.80
2018-12-04T10:27:49.520Z,12.80
2018-12-04T10:30:22.733Z,12.80
2018-12-04T10:32:55.849Z,12.80
2018-12-04T10:35:27.299Z,12.70
2018-12-04T10:38:00.533Z,12.70
2018-12-04T10:40:33.770Z,12.70
2018-12-04T10:43:05.731Z,12.70
2018-12-04T10:45:38.660Z,12.70
2018-12-04T10:48:12.130Z,12.70
2018-12-04T10:50:44.530Z,12.70
2018-12-04T10:53:17.459Z,12.80
2018-12-04T10:55:50.414Z,12.80
2018-12-04T10:58:23.599Z,12.80
2018-12-04T11:00:58.290Z,12.80
2018-12-04T11:03:34.890Z,12.80
2018-12-04T11:06:07.291Z,12.80
2018-12-04T11:08:39.910Z,12.80
2018-12-04T11:11:12.590Z,12.80
2018-12-04T11:13:45.399Z,12.70
2018-12-04T11:16:18.140Z,12.70
2018-12-04T11:18:51.158Z,12.80
2018-12-04T11:21:23.201Z,12.80
2018-12-04T11:23:56.488Z,12.90
2018-12-04T11:26:28.860Z,12.80
2018-12-04T11:29:01.721Z,12.80
2018-12-04T11:31:34.120Z,12.80
2018-12-04T11:34:05.850Z,12.80
2018-12-04T11:36:37.700Z,12.70
2018-12-04T11:39:10.520Z,12.80
2018-12-04T11:41:43.100Z,12.70
2018-12-04T11:44:15.473Z,12.70
2018-12-04T11:46:48.030Z,12.80
2018-12-04T11:49:21.340Z,12.80
2018-12-04T11:51:55.281Z,12.80
2018-12-04T11:54:28.232Z,12.80
2018-12-04T11:57:01.930Z,12.80
2018-12-04T11:59:34.840Z,12.80
2018-12-04T12:02:10.895Z,12.80
2018-12-04T12:04:43.631Z,12.90
2018-12-04T12:07:20.529Z,12.90
2018-12-04T12:09:50.271Z,13.00
2018-12-04T12:12:23.269Z,13.00
2018-12-04T12:14:54.881Z,13.10
2018-12-04T12:17:28.989Z,13.20
2018-12-04T12:20:01.444Z,13.20
2018-12-04T12:22:34.731Z,13.30
2018-12-04T12:25:07.320Z,13.40
2018-12-04T12:27:40.960Z,13.40
2018-12-04T12:30:14.702Z,13.40
2018-12-04T12:32:46.802Z,13.40
2018-12-04T12:35:19.710Z,13.50
2018-12-04T12:37:52.830Z,13.50
2018-12-04T12:40:25.301Z,13.50
2018-12-04T12:42:57.432Z,13.50
2018-12-04T12:45:30.249Z,13.60
2018-12-04T12:48:04.511Z,13.60
2018-12-04T12:50:37.612Z,13.50
2018-12-04T12:53:10.370Z,13.40
2018-12-04T12:55:43.522Z,13.40
2018-12-04T12:58:16.379Z,13.40
2018-12-04T13:00:48.991Z,13.40
2018-12-04T13:03:21.845Z,13.50
2018-12-04T13:05:54.443Z,13.50
2018-12-04T13:08:28.187Z,13.40
2018-12-04T13:11:01.290Z,13.40
2018-12-04T13:13:36.839Z,13.40
2018-12-04T13:16:09.012Z,13.30
2018-12-04T13:18:42.441Z,13.30
2018-12-04T13:21:14.150Z,13.20
2018-12-04T13:23:47.821Z,13.20
2018-12-04T13:26:19.721Z,13.10
2018-12-04T13:28:53.717Z,13.10
2018-12-04T13:31:26.412Z,13.10
2018-12-04T13:33:59.861Z,13.10
2018-12-04T13:36:32.914Z,13.10
2018-12-04T13:39:06.391Z,13.10
2018-12-04T13:41:38.921Z,13.10
2018-12-04T13:44:12.021Z,13.10
2018-12-04T13:46:45.208Z,13.10
2018-12-04T13:49:16.621Z,13.20
2018-12-04T13:51:49.846Z,13.10
2018-12-04T13:54:22.646Z,13.10
2018-12-04T13:56:54.821Z,13.10
2018-12-04T13:59:27.900Z,13.10
2018-12-04T14:02:00.350Z,13.10
2018-12-04T14:04:34.400Z,13.10
2018-12-04T14:07:07.636Z,13.20
2018-12-04T14:09:40.907Z,13.20
2018-12-04T14:12:15.861Z,13.10
2018-12-04T14:14:52.492Z,13.10
2018-12-04T14:17:24.506Z,13.00
2018-12-04T14:19:57.378Z,13.10
2018-12-04T14:22:29.004Z,13.00
2018-12-04T14:25:02.051Z,13.00
2018-12-04T14:27:34.626Z,13.00
2018-12-04T14:30:08.196Z,12.90
2018-12-04T14:32:41.742Z,12.90
2018-12-04T14:35:14.915Z,12.90
2018-12-04T14:37:47.563Z,12.90
2018-12-04T14:40:21.830Z,12.90
2018-12-04T14:42:56.871Z,12.90
2018-12-04T14:45:30.660Z,12.90
2018-12-04T14:48:03.782Z,12.90
2018-12-04T14:50:36.972Z,12.90
2018-12-04T14:53:09.402Z,12.90
2018-12-04T14:55:42.340Z,13.20
2018-12-04T14:58:15.391Z,13.00
2018-12-04T15:00:49.167Z,12.90
2018-12-04T15:03:21.692Z,13.00
2018-12-04T15:05:54.774Z,12.90
2018-12-04T15:08:27.161Z,12.90
2018-12-04T15:11:00.125Z,12.90
2018-12-04T15:13:32.004Z,12.80
2018-12-04T15:16:14.909Z,12.70
2018-12-04T15:18:49.101Z,12.60
2018-12-04T15:21:24.026Z,12.60
2018-12-04T15:24:01.963Z,12.60
2018-12-04T15:26:35.030Z,12.50
2018-12-04T15:29:11.438Z,12.50
2018-12-04T15:31:44.103Z,12.40
2018-12-04T15:34:17.496Z,12.40
2018-12-04T15:36:56.529Z,12.30
2018-12-04T15:39:27.424Z,12.30
2018-12-04T15:41:59.940Z,12.30
2018-12-04T15:44:33.075Z,12.30
2018-12-04T15:47:05.310Z,12.30
2018-12-04T15:49:38.071Z,12.30
2018-12-04T15:52:11.397Z,12.30
2018-12-04T15:54:43.908Z,12.30
2018-12-04T15:57:16.492Z,12.00
2018-12-04T15:59:48.991Z,11.70
2018-12-04T16:02:21.737Z,11.50
2018-12-04T16:04:55.123Z,11.40
2018-12-04T16:07:28.291Z,11.30
2018-12-04T16:10:00.271Z,11.30
2018-12-04T16:12:33.301Z,11.40
2018-12-04T16:15:06.622Z,11.40
2018-12-04T16:17:38.923Z,11.30
2018-12-04T16:20:12.480Z,11.30
2018-12-04T16:22:45.481Z,11.40
2018-12-04T16:25:18.862Z,11.40
2018-12-04T16:27:51.802Z,11.50
2018-12-04T16:30:25.262Z,11.50
2018-12-04T16:32:57.770Z,11.50
2018-12-04T16:35:30.411Z,11.50
2018-12-04T16:38:03.161Z,11.50
2018-12-04T16:40:35.960Z,11.50
2018-12-04T16:43:08.882Z,11.50
2018-12-04T16:45:41.582Z,11.50
2018-12-04T16:48:13.671Z,11.50
2018-12-04T16:50:46.273Z,11.50
2018-12-04T16:53:19.565Z,11.40
2018-12-04T16:55:52.957Z,11.30
2018-12-04T16:58:25.256Z,11.30
2018-12-04T17:00:58.501Z,11.30
2018-12-04T17:03:30.691Z,11.20
2018-12-04T17:06:04.970Z,11.20
2018-12-04T17:08:37.841Z,11.10
2018-12-04T17:11:11.171Z,11.20
2018-12-04T17:13:44.190Z,11.30
2018-12-04T17:16:17.412Z,11.30
2018-12-04T17:18:49.900Z,11.30
2018-12-04T17:21:22.643Z,11.30
2018-12-04T17:23:54.305Z,11.30
2018-12-04T17:26:26.772Z,11.30
2018-12-04T17:28:59.831Z,11.20
2018-12-04T17:31:32.491Z,11.20
2018-12-04T17:34:05.862Z,11.20
2018-12-04T17:36:38.102Z,11.10
2018-12-04T17:39:10.542Z,11.20
2018-12-04T17:41:44.071Z,11.10
2018-12-04T17:44:17.341Z,11.10
2018-12-04T17:46:51.136Z,11.20
2018-12-04T17:49:22.822Z,11.10
2018-12-04T17:51:55.401Z,11.00
2018-12-04T17:54:28.682Z,11.10
2018-12-04T17:57:00.762Z,11.10
2018-12-04T17:59:33.431Z,11.10
2018-12-04T18:02:07.311Z,11.10
2018-12-04T18:04:38.964Z,11.10
2018-12-04T18:07:12.491Z,11.20
2018-12-04T18:09:45.821Z,11.10
2018-12-04T18:12:19.126Z,11.10
2018-12-04T18:14:51.492Z,11.10
2018-12-04T18:17:24.292Z,11.10
2018-12-04T18:19:57.993Z,11.00
2018-12-04T18:22:32.413Z,11.00
2018-12-04T18:25:05.092Z,11.00
2018-12-04T18:27:38.512Z,11.00
2018-12-04T18:30:11.651Z,11.00
2018-12-04T18:32:43.560Z,11.00
2018-12-04T18:35:16.017Z,10.90
2018-12-04T18:37:48.142Z,10.90
2018-12-04T18:40:21.582Z,10.80
2018-12-04T18:42:53.742Z,10.80
2018-12-04T18:45:26.602Z,10.80
2018-12-04T18:47:59.163Z,10.80
2018-12-04T18:50:30.982Z,10.80
2018-12-04T18:53:03.782Z,10.80
2018-12-04T18:55:37.292Z,10.70
2018-12-04T18:58:09.982Z,10.60
2018-12-04T19:00:42.592Z,10.60
2018-12-04T19:03:15.594Z,10.60
2018-12-04T19:05:49.281Z,10.50
2018-12-04T19:08:25.352Z,10.50
2018-12-04T19:10:58.262Z,10.40
2018-12-04T19:13:31.191Z,10.30
2018-12-04T19:16:04.632Z,10.30
2018-12-04T19:18:37.302Z,10.20
2018-12-04T19:21:08.342Z,10.20
2018-12-04T19:23:41.635Z,10.20
2018-12-04T19:26:14.262Z,10.20
2018-12-04T19:28:46.532Z,10.30
2018-12-04T19:31:18.962Z,10.30
2018-12-04T19:33:51.842Z,10.30
2018-12-04T19:36:25.461Z,10.30
2018-12-04T19:38:57.543Z,10.30
2018-12-04T19:41:30.624Z,10.30
2018-12-04T19:44:04.232Z,10.30
2018-12-04T19:46:37.770Z,10.30
2018-12-04T19:49:10.771Z,10.30
2018-12-04T19:51:44.563Z,10.30
2018-12-04T19:54:17.431Z,10.30
2018-12-04T19:56:50.361Z,10.30
2018-12-04T19:59:23.222Z,10.30
2018-12-04T20:01:56.601Z,10.30
2018-12-04T20:04:29.940Z,10.30
2018-12-04T20:07:02.589Z,10.30
2018-12-04T20:09:36.022Z,10.30
2018-12-04T20:12:09.412Z,10.20
2018-12-04T20:14:42.292Z,10.20
2018-12-04T20:17:15.791Z,10.20
2018-12-04T20:19:48.971Z,10.20
2018-12-04T20:22:22.631Z,10.20
2018-12-04T20:24:56.253Z,10.20
2018-12-04T20:27:28.846Z,10.10
2018-12-04T20:30:01.232Z,10.00
2018-12-04T20:32:35.183Z,10.00
2018-12-04T20:35:08.782Z,10.10
2018-12-04T20:37:42.932Z,10.10
2018-12-04T20:40:15.607Z,10.10
2018-12-04T20:42:48.703Z,10.20
2018-12-04T20:45:21.410Z,10.20
2018-12-04T20:47:55.082Z,10.10
2018-12-04T20:50:27.532Z,10.20
2018-12-04T20:53:00.312Z,10.20
2018-12-04T20:55:32.841Z,10.20
2018-12-04T20:58:05.791Z,10.20
2018-12-04T21:00:38.462Z,10.20
2018-12-04T21:03:11.572Z,10.20
2018-12-04T21:05:44.382Z,10.20
2018-12-04T21:08:18.242Z,10.20
2018-12-04T21:10:51.631Z,10.20
2018-12-04T21:13:23.992Z,10.10
2018-12-04T21:15:56.473Z,10.10
2018-12-04T21:18:29.641Z,10.10
2018-12-04T21:21:01.962Z,10.10
2018-12-04T21:23:34.751Z,10.10
2018-12-04T21:26:08.102Z,10.10
2018-12-04T21:28:43.742Z,10.10
2018-12-04T21:31:20.182Z,10.10
2018-12-04T21:33:57.022Z,10.10
2018-12-04T21:36:33.503Z,10.00
2018-12-04T21:39:12.022Z,10.00
2018-12-04T21:41:48.872Z,10.00
2018-12-04T21:44:26.401Z,10.00
2018-12-04T21:47:03.722Z,10.00
2018-12-04T21:49:36.091Z,10.10
2018-12-04T21:52:09.602Z,10.10
2018-12-04T21:54:42.453Z,10.10
2018-12-04T21:57:17.514Z,10.10
2018-12-04T21:59:50.561Z,10.00
2018-12-04T22:02:23.041Z,10.00
2018-12-04T22:04:55.742Z,10.10
2018-12-04T22:07:29.542Z,10.10
2018-12-04T22:10:02.284Z,10.00
2018-12-04T22:12:35.110Z,10.00
2018-12-04T22:15:07.552Z,10.00
2018-12-04T22:17:40.353Z,10.10
2018-12-04T22:20:12.731Z,10.00
2018-12-04T22:22:45.434Z,10.00
2018-12-04T22:25:17.854Z,10.00
2018-12-04T22:27:50.962Z,10.00
2018-12-04T22:30:23.102Z,9.90
2018-12-04T22:32:56.343Z,9.80
2018-12-04T22:35:28.682Z,9.80
2018-12-04T22:38:01.152Z,9.90
2018-12-04T22:40:33.282Z,9.80
2018-12-04T22:43:06.462Z,9.80
2018-12-04T22:45:40.167Z,9.90
2018-12-04T22:48:14.321Z,9.80
2018-12-04T22:50:46.961Z,9.80
2018-12-04T22:53:20.043Z,9.80
2018-12-04T22:55:52.391Z,9.80
2018-12-04T22:58:24.902Z,9.80
2018-12-04T23:00:56.372Z,9.80
2018-12-04T23:03:29.019Z,9.90
2018-12-04T23:06:00.378Z,9.90
2018-12-04T23:08:32.946Z,9.80
2018-12-04T23:11:05.269Z,9.80
2018-12-04T23:13:37.540Z,9.80
2018-12-04T23:16:10.083Z,9.80
2018-12-04T23:18:43.051Z,9.90
2018-12-04T23:21:15.215Z,9.90
2018-12-04T23:23:47.692Z,9.80
2018-12-04T23:26:20.262Z,9.80
2018-12-04T23:28:52.462Z,9.80
2018-12-04T23:31:24.992Z,9.80
2018-12-04T23:33:58.362Z,9.90
2018-12-04T23:36:32.472Z,9.80
2018-12-04T23:39:06.512Z,9.90
2018-12-04T23:41:39.152Z,9.80
2018-12-04T23:44:11.987Z,9.80
2018-12-04T23:46:43.751Z,9.80
2018-12-04T23:49:16.381Z,9.80
2018-12-04T23:51:49.614Z,9.80
2018-12-04T23:54:22.972Z,9.90
2018-12-04T23:56:54.662Z,9.90
2018-12-04T23:59:28.039Z,9.90
